sensor_id;sensor_type;location;lat;lon;timestamp;temperature;humidity
36206;DHT22;22242;48.796;9.930;2023-04-03T00:01:03;3.20;99.90
36206;DHT22;22242;48.796;9.930;2023-04-03T00:03:31;3.30;99.90
36206;DHT22;22242;48.796;9.930;2023-04-03T00:05:58;3.30;99.90
36206;DHT22;22242;48.796;9.930;2023-04-03T00:08:26;3.30;99.90
36206;DHT22;22242;48.796;9.930;2023-04-03T00:10:54;3.30;99.90
36206;DHT22;22242;48.796;9.930;2023-04-03T00:13:21;3.20;99.90
36206;DHT22;22242;48.796;9.930;2023-04-03T00:15:48;3.20;99.90
36206;DHT22;22242;48.796;9.930;2023-04-03T00:18:15;3.20;99.90
36206;DHT22;22242;48.796;9.930;2023-04-03T00:20:43;3.20;99.90
36206;DHT22;22242;48.796;9.930;2023-04-03T00:23:10;3.20;99.90
36206;DHT22;22242;48.796;9.930;2023-04-03T00:25:37;3.20;99.90
36206;DHT22;22242;48.796;9.930;2023-04-03T00:28:06;3.20;99.90
36206;DHT22;22242;48.796;9.930;2023-04-03T00:30:33;3.10;99.90
36206;DHT22;22242;48.796;9.930;2023-04-03T00:33:00;3.10;99.90
36206;DHT22;22242;48.796;9.930;2023-04-03T00:35:28;3.20;99.90
36206;DHT22;22242;48.796;9.930;2023-04-03T00:37:56;3.20;99.90
36206;DHT22;22242;48.796;9.930;2023-04-03T00:40:25;3.10;99.90
36206;DHT22;22242;48.796;9.930;2023-04-03T00:42:56;3.10;99.90
36206;DHT22;22242;48.796;9.930;2023-04-03T00:45:32;3.10;99.90
36206;DHT22;22242;48.796;9.930;2023-04-03T00:48:01;3.00;99.90
36206;DHT22;22242;48.796;9.930;2023-04-03T00:50:33;3.10;99.90
36206;DHT22;22242;48.796;9.930;2023-04-03T00:53:01;3.10;99.90
36206;DHT22;22242;48.796;9.930;2023-04-03T00:55:29;3.20;99.90
36206;DHT22;22242;48.796;9.930;2023-04-03T00:57:57;3.20;99.90
36206;DHT22;22242;48.796;9.930;2023-04-03T01:00:28;3.00;99.90
36206;DHT22;22242;48.796;9.930;2023-04-03T01:02:55;3.00;99.90
36206;DHT22;22242;48.796;9.930;2023-04-03T01:05:22;3.10;99.90
36206;DHT22;22242;48.796;9.930;2023-04-03T01:07:51;3.20;99.90
36206;DHT22;22242;48.796;9.930;2023-04-03T01:10:20;3.10;99.90
36206;DHT22;22242;48.796;9.930;2023-04-03T01:12:48;3.00;99.90
36206;DHT22;22242;48.796;9.930;2023-04-03T01:15:18;3.00;99.90
36206;DHT22;22242;48.796;9.930;2023-04-03T01:17:49;3.00;99.90
36206;DHT22;22242;48.796;9.930;2023-04-03T01:20:50;3.00;99.90
36206;DHT22;22242;48.796;9.930;2023-04-03T01:23:30;3.00;99.90
36206;DHT22;22242;48.796;9.930;2023-04-03T01:25:59;3.10;99.90
36206;DHT22;22242;48.796;9.930;2023-04-03T01:28:28;3.10;99.90
36206;DHT22;22242;48.796;9.930;2023-04-03T01:31:02;3.00;99.90
36206;DHT22;22242;48.796;9.930;2023-04-03T01:33:33;2.90;99.90
36206;DHT22;22242;48.796;9.930;2023-04-03T01:36:01;3.00;99.90
36206;DHT22;22242;48.796;9.930;2023-04-03T01:38:29;2.90;99.90
36206;DHT22;22242;48.796;9.930;2023-04-03T01:40:57;3.00;99.90
36206;DHT22;22242;48.796;9.930;2023-04-03T01:43:24;3.00;99.90
36206;DHT22;22242;48.796;9.930;2023-04-03T01:45:51;3.00;99.90
36206;DHT22;22242;48.796;9.930;2023-04-03T01:48:20;3.10;99.90
36206;DHT22;22242;48.796;9.930;2023-04-03T01:50:48;3.00;99.90
36206;DHT22;22242;48.796;9.930;2023-04-03T01:53:15;3.10;99.90
36206;DHT22;22242;48.796;9.930;2023-04-03T01:55:42;3.10;99.90
36206;DHT22;22242;48.796;9.930;2023-04-03T01:58:09;3.00;99.90
36206;DHT22;22242;48.796;9.930;2023-04-03T02:00:37;3.00;99.90
36206;DHT22;22242;48.796;9.930;2023-04-03T02:03:03;3.00;99.90
36206;DHT22;22242;48.796;9.930;2023-04-03T02:05:31;2.90;99.90
36206;DHT22;22242;48.796;9.930;2023-04-03T02:07:59;2.90;99.90
36206;DHT22;22242;48.796;9.930;2023-04-03T02:10:26;2.90;99.90
36206;DHT22;22242;48.796;9.930;2023-04-03T02:12:53;2.90;99.90
36206;DHT22;22242;48.796;9.930;2023-04-03T02:15:21;3.00;99.90
36206;DHT22;22242;48.796;9.930;2023-04-03T02:17:48;3.00;99.90
36206;DHT22;22242;48.796;9.930;2023-04-03T02:20:15;3.10;99.90
36206;DHT22;22242;48.796;9.930;2023-04-03T02:22:43;3.10;99.90
36206;DHT22;22242;48.796;9.930;2023-04-03T02:25:11;3.00;99.90
36206;DHT22;22242;48.796;9.930;2023-04-03T02:27:41;2.90;99.90
36206;DHT22;22242;48.796;9.930;2023-04-03T02:30:09;3.00;99.90
36206;DHT22;22242;48.796;9.930;2023-04-03T02:32:36;3.00;99.90
36206;DHT22;22242;48.796;9.930;2023-04-03T02:35:04;3.00;99.90
36206;DHT22;22242;48.796;9.930;2023-04-03T02:37:31;3.00;99.90
36206;DHT22;22242;48.796;9.930;2023-04-03T02:39:59;3.10;99.90
36206;DHT22;22242;48.796;9.930;2023-04-03T02:42:28;3.00;99.90
36206;DHT22;22242;48.796;9.930;2023-04-03T02:44:55;2.90;99.90
36206;DHT22;22242;48.796;9.930;2023-04-03T02:47:22;2.90;99.90
36206;DHT22;22242;48.796;9.930;2023-04-03T02:49:50;3.00;99.90
36206;DHT22;22242;48.796;9.930;2023-04-03T02:52:18;3.00;99.90
36206;DHT22;22242;48.796;9.930;2023-04-03T02:54:46;2.90;99.90
36206;DHT22;22242;48.796;9.930;2023-04-03T02:57:14;2.90;99.90
36206;DHT22;22242;48.796;9.930;2023-04-03T02:59:42;2.90;99.90
36206;DHT22;22242;48.796;9.930;2023-04-03T03:02:11;3.00;99.90
36206;DHT22;22242;48.796;9.930;2023-04-03T03:04:38;2.90;99.90
36206;DHT22;22242;48.796;9.930;2023-04-03T03:07:05;2.90;99.90
36206;DHT22;22242;48.796;9.930;2023-04-03T03:09:33;2.90;99.90
36206;DHT22;22242;48.796;9.930;2023-04-03T03:12:01;2.90;99.90
36206;DHT22;22242;48.796;9.930;2023-04-03T03:14:29;2.90;99.90
36206;DHT22;22242;48.796;9.930;2023-04-03T03:16:57;2.80;99.90
36206;DHT22;22242;48.796;9.930;2023-04-03T03:19:24;2.90;99.90
36206;DHT22;22242;48.796;9.930;2023-04-03T03:21:51;2.90;99.90
36206;DHT22;22242;48.796;9.930;2023-04-03T03:24:18;2.90;99.90
36206;DHT22;22242;48.796;9.930;2023-04-03T03:26:47;2.80;99.90
36206;DHT22;22242;48.796;9.930;2023-04-03T03:29:14;2.90;99.90
36206;DHT22;22242;48.796;9.930;2023-04-03T03:31:41;2.90;99.90
36206;DHT22;22242;48.796;9.930;2023-04-03T03:34:10;2.80;99.90
36206;DHT22;22242;48.796;9.930;2023-04-03T03:36:37;2.90;99.90
36206;DHT22;22242;48.796;9.930;2023-04-03T03:39:05;2.80;99.90
36206;DHT22;22242;48.796;9.930;2023-04-03T03:41:32;2.80;99.90
36206;DHT22;22242;48.796;9.930;2023-04-03T03:44:00;2.80;99.90
36206;DHT22;22242;48.796;9.930;2023-04-03T03:46:29;2.70;99.90
36206;DHT22;22242;48.796;9.930;2023-04-03T03:48:56;2.70;99.90
36206;DHT22;22242;48.796;9.930;2023-04-03T03:51:24;2.70;99.90
36206;DHT22;22242;48.796;9.930;2023-04-03T03:53:52;2.80;99.90
36206;DHT22;22242;48.796;9.930;2023-04-03T03:56:19;2.80;99.90
36206;DHT22;22242;48.796;9.930;2023-04-03T03:58:46;2.80;99.90
36206;DHT22;22242;48.796;9.930;2023-04-03T04:01:15;2.90;99.90
36206;DHT22;22242;48.796;9.930;2023-04-03T04:03:46;2.70;99.90
36206;DHT22;22242;48.796;9.930;2023-04-03T04:06:18;2.80;99.90
36206;DHT22;22242;48.796;9.930;2023-04-03T04:08:47;2.70;99.90
36206;DHT22;22242;48.796;9.930;2023-04-03T04:11:14;2.80;99.90
36206;DHT22;22242;48.796;9.930;2023-04-03T04:13:43;2.80;99.90
36206;DHT22;22242;48.796;9.930;2023-04-03T04:16:12;2.70;99.90
36206;DHT22;22242;48.796;9.930;2023-04-03T04:18:39;2.70;99.90
36206;DHT22;22242;48.796;9.930;2023-04-03T04:21:07;2.60;99.90
36206;DHT22;22242;48.796;9.930;2023-04-03T04:23:34;2.50;99.90
36206;DHT22;22242;48.796;9.930;2023-04-03T04:26:02;2.40;99.90
36206;DHT22;22242;48.796;9.930;2023-04-03T04:28:33;2.40;99.90
36206;DHT22;22242;48.796;9.930;2023-04-03T04:31:02;2.20;99.90
36206;DHT22;22242;48.796;9.930;2023-04-03T04:33:29;2.10;99.90
36206;DHT22;22242;48.796;9.930;2023-04-03T04:35:58;2.10;99.90
36206;DHT22;22242;48.796;9.930;2023-04-03T04:38:25;2.10;99.90
36206;DHT22;22242;48.796;9.930;2023-04-03T04:40:53;1.90;99.90
36206;DHT22;22242;48.796;9.930;2023-04-03T04:43:22;1.90;99.90
36206;DHT22;22242;48.796;9.930;2023-04-03T04:46:01;1.90;99.90
36206;DHT22;22242;48.796;9.930;2023-04-03T04:48:29;1.70;99.90
36206;DHT22;22242;48.796;9.930;2023-04-03T04:50:56;1.50;99.90
36206;DHT22;22242;48.796;9.930;2023-04-03T04:53:23;1.50;99.90
36206;DHT22;22242;48.796;9.930;2023-04-03T04:55:50;1.50;99.90
36206;DHT22;22242;48.796;9.930;2023-04-03T04:58:18;1.50;99.90
36206;DHT22;22242;48.796;9.930;2023-04-03T05:00:47;1.40;99.90
36206;DHT22;22242;48.796;9.930;2023-04-03T05:03:15;1.50;99.90
36206;DHT22;22242;48.796;9.930;2023-04-03T05:05:43;1.50;99.90
36206;DHT22;22242;48.796;9.930;2023-04-03T05:08:11;1.50;99.90
36206;DHT22;22242;48.796;9.930;2023-04-03T05:10:40;1.50;99.90
36206;DHT22;22242;48.796;9.930;2023-04-03T05:13:10;1.50;99.90
36206;DHT22;22242;48.796;9.930;2023-04-03T05:15:37;1.50;99.90
36206;DHT22;22242;48.796;9.930;2023-04-03T05:18:05;1.50;99.90
36206;DHT22;22242;48.796;9.930;2023-04-03T05:20:32;1.50;99.90
36206;DHT22;22242;48.796;9.930;2023-04-03T05:22:59;1.50;99.90
36206;DHT22;22242;48.796;9.930;2023-04-03T05:25:26;1.60;99.90
36206;DHT22;22242;48.796;9.930;2023-04-03T05:27:55;1.70;99.90
36206;DHT22;22242;48.796;9.930;2023-04-03T05:30:23;1.80;99.90
36206;DHT22;22242;48.796;9.930;2023-04-03T05:32:50;2.00;99.90
36206;DHT22;22242;48.796;9.930;2023-04-03T05:35:25;2.10;99.90
36206;DHT22;22242;48.796;9.930;2023-04-03T05:37:55;2.10;99.90
36206;DHT22;22242;48.796;9.930;2023-04-03T05:40:23;2.10;99.90
36206;DHT22;22242;48.796;9.930;2023-04-03T05:42:53;2.20;99.90
36206;DHT22;22242;48.796;9.930;2023-04-03T05:45:23;2.10;99.90
36206;DHT22;22242;48.796;9.930;2023-04-03T05:47:50;2.20;99.90
36206;DHT22;22242;48.796;9.930;2023-04-03T05:50:17;2.30;99.90
36206;DHT22;22242;48.796;9.930;2023-04-03T05:52:47;2.30;99.90
36206;DHT22;22242;48.796;9.930;2023-04-03T05:55:16;2.40;99.90
36206;DHT22;22242;48.796;9.930;2023-04-03T05:57:44;2.50;99.90
36206;DHT22;22242;48.796;9.930;2023-04-03T06:00:13;2.60;99.90
36206;DHT22;22242;48.796;9.930;2023-04-03T06:02:43;2.50;99.90
